Time;durP1;ratioP1;P1;durP2;ratioP2;P2;SDS_P1;SDS_P2;PMS_P1;PMS_P2;Temp;Humidity;BMP_temperature;BMP_pressure;BME280_temperature;BME280_humidity;BME280_pressure;Samples;Min_cycle;Max_cycle;Signal;HPM_P1;HPM_P2
2021/06/27 00:01:24;;;;;;;17.00;13.68;;;11.90;99.90;;;;;;5032458;28;20055;-84
2021/06/27 00:03:52;;;;;;;14.77;13.18;;;12.00;99.90;;;;;;5032792;28;20041;-84
2021/06/27 00:06:20;;;;;;;13.88;12.25;;;11.90;99.90;;;;;;5015785;28;20091;-84
2021/06/27 00:08:48;;;;;;;14.13;12.65;;;12.00;99.90;;;;;;5015036;28;20081;-85
2021/06/27 00:11:16;;;;;;;16.02;13.55;;;11.90;99.90;;;;;;5015076;28;20401;-84
2021/06/27 00:13:45;;;;;;;15.23;12.70;;;11.80;99.90;;;;;;5032589;28;20053;-84
2021/06/27 00:16:13;;;;;;;14.57;11.93;;;11.80;99.90;;;;;;5015184;28;20053;-84
2021/06/27 00:18:41;;;;;;;15.05;13.23;;;11.80;99.90;;;;;;5012166;28;20049;-85
2021/06/27 00:21:10;;;;;;;17.45;13.48;;;11.80;99.90;;;;;;5011513;28;20060;-85
2021/06/27 00:23:42;;;;;;;13.73;12.32;;;11.60;99.90;;;;;;5011667;28;20053;-85
2021/06/27 00:26:11;;;;;;;15.48;12.57;;;11.60;99.90;;;;;;5014691;28;20058;-85
2021/06/27 00:28:38;;;;;;;15.48;13.05;;;11.60;99.90;;;;;;5015406;28;20076;-84
2021/06/27 00:31:05;;;;;;;15.48;13.70;;;11.60;99.90;;;;;;5016632;28;20105;-84
2021/06/27 00:33:32;;;;;;;13.88;12.32;;;11.70;99.90;;;;;;5016283;28;20054;-84
2021/06/27 00:35:59;;;;;;;18.52;13.95;;;11.70;99.90;;;;;;5015185;28;20057;-83
2021/06/27 00:38:26;;;;;;;15.27;12.57;;;11.80;99.90;;;;;;5015251;28;20054;-83
2021/06/27 00:40:53;;;;;;;15.75;11.88;;;11.80;99.90;;;;;;5016328;28;20045;-83
2021/06/27 00:43:21;;;;;;;14.52;12.98;;;11.80;99.90;;;;;;5016941;28;20052;-85
2021/06/27 00:45:48;;;;;;;14.05;12.10;;;11.80;99.90;;;;;;5022092;28;20054;-85
2021/06/27 00:48:15;;;;;;;15.23;13.10;;;11.80;99.90;;;;;;5017238;28;20050;-84
2021/06/27 00:50:49;;;;;;;16.15;13.35;;;11.70;99.90;;;;;;5015500;28;20049;-85
2021/06/27 00:53:16;;;;;;;14.43;12.95;;;11.50;99.90;;;;;;5015421;28;20054;-85
2021/06/27 00:55:45;;;;;;;13.95;12.45;;;11.50;99.90;;;;;;5015122;28;20052;-84
2021/06/27 00:58:12;;;;;;;15.30;13.15;;;11.40;99.90;;;;;;5015231;28;20057;-85
2021/06/27 01:00:41;;;;;;;13.43;12.05;;;11.40;99.90;;;;;;5015148;28;20049;-85
2021/06/27 01:03:08;;;;;;;15.45;13.20;;;11.40;99.90;;;;;;5014809;28;20050;-85
2021/06/27 01:05:37;;;;;;;16.25;13.15;;;11.30;99.90;;;;;;5015121;28;20069;-84
2021/06/27 01:08:06;;;;;;;20.58;14.27;;;11.20;99.90;;;;;;5015002;28;20056;-85
2021/06/27 01:10:32;;;;;;;19.27;14.55;;;11.10;99.90;;;;;;5016138;28;20050;-85
2021/06/27 01:13:00;;;;;;;21.20;13.85;;;11.00;99.90;;;;;;5015764;28;20046;-85
2021/06/27 01:15:27;;;;;;;16.90;13.43;;;11.10;99.90;;;;;;5014378;28;20521;-84
2021/06/27 01:17:56;;;;;;;16.05;13.80;;;11.20;99.90;;;;;;5016233;28;20052;-85
2021/06/27 01:20:26;;;;;;;17.83;14.10;;;11.10;99.90;;;;;;5018518;28;20099;-85
2021/06/27 01:22:54;;;;;;;16.00;13.18;;;11.00;99.90;;;;;;5018499;28;20053;-85
2021/06/27 01:25:27;;;;;;;19.80;13.48;;;10.90;99.90;;;;;;5035539;28;20052;-85
2021/06/27 01:27:55;;;;;;;18.02;14.13;;;10.80;99.90;;;;;;5017821;28;20059;-85
2021/06/27 01:30:23;;;;;;;22.63;15.00;;;10.70;99.90;;;;;;5018492;28;20049;-85
2021/06/27 01:32:51;;;;;;;16.65;14.32;;;10.70;99.90;;;;;;5035220;28;20048;-85
2021/06/27 01:35:21;;;;;;;19.98;15.88;;;10.80;99.90;;;;;;5017824;28;20053;-85
2021/06/27 01:37:52;;;;;;;20.40;14.98;;;10.70;99.90;;;;;;5033930;28;20493;-85
2021/06/27 01:40:20;;;;;;;17.17;14.32;;;10.70;99.90;;;;;;5034957;28;20049;-84
2021/06/27 01:42:48;;;;;;;19.48;14.70;;;10.90;99.90;;;;;;5017702;28;20052;-85
2021/06/27 01:45:17;;;;;;;19.35;13.85;;;11.00;99.90;;;;;;5017266;28;20053;-85
2021/06/27 01:47:51;;;;;;;19.10;14.55;;;11.00;99.90;;;;;;5017618;28;20049;-85
2021/06/27 01:50:18;;;;;;;17.38;14.27;;;11.00;99.90;;;;;;5035086;28;20084;-85
2021/06/27 01:52:45;;;;;;;16.73;13.20;;;10.80;99.90;;;;;;5034874;28;20042;-85
2021/06/27 01:55:12;;;;;;;17.08;14.52;;;10.80;99.90;;;;;;5017298;28;20049;-85
2021/06/27 01:57:39;;;;;;;17.35;13.60;;;10.80;99.90;;;;;;5017370;28;20052;-85
2021/06/27 02:00:08;;;;;;;16.15;13.70;;;10.70;99.90;;;;;;5017448;28;20057;-85
2021/06/27 02:02:35;;;;;;;14.77;12.30;;;10.60;99.90;;;;;;5017526;28;20067;-84
2021/06/27 02:05:04;;;;;;;18.13;13.13;;;10.60;99.90;;;;;;5036268;28;20059;-85
2021/06/27 02:07:30;;;;;;;15.68;12.98;;;10.60;99.90;;;;;;5020075;28;20045;-85
2021/06/27 02:09:57;;;;;;;19.52;13.93;;;10.50;99.90;;;;;;5034976;28;20060;-85
2021/06/27 02:12:24;;;;;;;15.68;13.23;;;10.50;99.90;;;;;;5034571;28;20052;-85
2021/06/27 02:14:51;;;;;;;19.17;14.65;;;10.40;99.90;;;;;;5016912;28;20052;-85
2021/06/27 02:17:18;;;;;;;17.70;14.15;;;10.30;99.90;;;;;;5017288;28;20050;-85
2021/06/27 02:19:53;;;;;;;18.00;14.60;;;10.30;99.90;;;;;;5034062;28;20093;-85
2021/06/27 02:22:21;;;;;;;20.50;14.32;;;10.30;99.90;;;;;;5017051;28;20072;-84
2021/06/27 02:24:48;;;;;;;18.52;14.90;;;10.30;99.90;;;;;;5016757;28;20216;-85
2021/06/27 02:27:15;;;;;;;15.82;14.05;;;10.40;99.90;;;;;;5016710;28;20060;-84
2021/06/27 02:29:42;;;;;;;18.30;15.00;;;10.40;99.90;;;;;;5016583;28;20512;-85
2021/06/27 02:32:09;;;;;;;17.63;14.20;;;10.40;99.90;;;;;;5016781;28;20057;-84
2021/06/27 02:34:36;;;;;;;18.80;14.00;;;10.50;99.90;;;;;;5016487;28;20088;-85
2021/06/27 02:37:03;;;;;;;19.20;14.25;;;10.30;99.90;;;;;;5034009;28;20045;-85
2021/06/27 02:39:30;;;;;;;21.30;15.20;;;10.30;99.90;;;;;;5016604;28;20050;-85
2021/06/27 02:41:57;;;;;;;18.15;14.70;;;10.20;99.90;;;;;;5016647;28;20132;-85
2021/06/27 02:44:26;;;;;;;18.20;14.45;;;10.20;99.90;;;;;;5034295;28;20072;-85
2021/06/27 02:46:53;;;;;;;17.85;14.18;;;10.20;99.90;;;;;;5016350;28;20046;-85
2021/06/27 02:49:22;;;;;;;15.43;13.63;;;10.40;99.90;;;;;;5016347;28;20084;-85
2021/06/27 02:51:50;;;;;;;20.65;15.43;;;10.40;99.90;;;;;;5016403;28;20063;-85
2021/06/27 02:54:16;;;;;;;15.55;13.95;;;10.40;99.90;;;;;;5016598;28;20049;-85
2021/06/27 02:56:43;;;;;;;19.15;14.60;;;10.30;99.90;;;;;;5016260;28;20053;-85
2021/06/27 02:59:10;;;;;;;18.52;14.18;;;10.30;99.90;;;;;;5033668;28;20050;-85
2021/06/27 03:01:37;;;;;;;19.17;13.65;;;10.30;99.90;;;;;;5016408;28;20087;-85
2021/06/27 03:04:04;;;;;;;17.20;14.00;;;10.30;99.90;;;;;;5016437;28;20060;-85
2021/06/27 03:06:31;;;;;;;19.17;15.05;;;10.20;99.90;;;;;;5015476;28;20049;-85
2021/06/27 03:08:58;;;;;;;17.73;15.13;;;10.10;99.90;;;;;;5016340;28;20067;-85
2021/06/27 03:11:24;;;;;;;17.45;13.93;;;10.10;99.90;;;;;;5033641;28;20160;-85
2021/06/27 03:13:53;;;;;;;17.95;14.57;;;10.00;99.90;;;;;;5033284;28;20041;-85
2021/06/27 03:16:20;;;;;;;21.05;15.55;;;10.00;99.90;;;;;;5015978;28;20056;-84
2021/06/27 03:18:47;;;;;;;22.23;15.13;;;10.00;99.90;;;;;;5033024;28;20152;-84
2021/06/27 03:21:13;;;;;;;20.50;14.70;;;10.10;99.90;;;;;;5016096;28;20056;-85
2021/06/27 03:23:40;;;;;;;21.05;15.05;;;10.10;99.90;;;;;;5017357;28;20486;-84
2021/06/27 03:26:07;;;;;;;21.60;14.82;;;10.20;99.90;;;;;;5039719;28;20049;-85
2021/06/27 03:28:36;;;;;;;17.08;14.88;;;10.10;99.90;;;;;;5015786;28;20055;-85
2021/06/27 03:31:03;;;;;;;20.75;15.68;;;10.10;99.90;;;;;;5015462;28;20493;-85
2021/06/27 03:33:31;;;;;;;23.40;16.88;;;10.10;99.90;;;;;;5015896;28;20056;-85
2021/06/27 03:35:57;;;;;;;22.52;15.88;;;10.10;99.90;;;;;;5015471;28;20053;-85
2021/06/27 03:38:36;;;;;;;20.33;15.20;;;10.10;99.90;;;;;;5015264;28;20042;-85
2021/06/27 03:41:03;;;;;;;19.67;15.13;;;10.20;99.90;;;;;;5015594;28;20088;-84
2021/06/27 03:43:30;;;;;;;19.05;14.98;;;10.30;99.90;;;;;;5015556;28;20502;-84
2021/06/27 03:45:56;;;;;;;20.90;14.57;;;10.30;99.90;;;;;;5032901;28;20099;-85
2021/06/27 03:48:23;;;;;;;20.42;15.32;;;10.40;99.90;;;;;;5015730;28;20307;-85
2021/06/27 03:50:50;;;;;;;16.75;14.75;;;10.40;99.90;;;;;;5015753;28;20053;-85
2021/06/27 03:53:17;;;;;;;20.08;15.02;;;10.40;99.90;;;;;;5033036;28;20054;-85
2021/06/27 03:55:43;;;;;;;18.45;16.02;;;10.30;99.90;;;;;;5032854;28;20049;-85
2021/06/27 03:58:10;;;;;;;23.88;16.33;;;10.30;99.90;;;;;;5033000;28;20084;-85
2021/06/27 04:00:38;;;;;;;21.27;15.82;;;10.30;99.90;;;;;;5018224;28;20060;-85
2021/06/27 04:03:05;;;;;;;23.25;17.10;;;10.40;99.90;;;;;;5019538;28;20063;-84
2021/06/27 04:05:32;;;;;;;21.95;17.58;;;10.40;99.90;;;;;;5019568;28;20057;-85
2021/06/27 04:07:59;;;;;;;22.40;14.85;;;10.50;99.90;;;;;;5019552;28;20128;-85
2021/06/27 04:10:26;;;;;;;21.10;15.73;;;10.70;99.90;;;;;;5036877;28;20091;-85
2021/06/27 04:12:52;;;;;;;22.80;17.02;;;10.80;99.90;;;;;;5036839;28;20050;-84
2021/06/27 04:15:19;;;;;;;20.88;16.15;;;10.80;99.90;;;;;;5019032;28;20580;-84
2021/06/27 04:17:46;;;;;;;24.55;16.83;;;10.90;99.90;;;;;;5036598;28;20045;-85
2021/06/27 04:20:13;;;;;;;22.63;17.40;;;10.90;99.90;;;;;;5019435;28;20480;-85
2021/06/27 04:22:40;;;;;;;24.58;18.55;;;10.90;99.90;;;;;;5018951;28;20049;-85
2021/06/27 04:25:08;;;;;;;17.88;15.25;;;11.10;99.90;;;;;;5018796;28;20073;-85
2021/06/27 04:27:35;;;;;;;26.15;19.17;;;11.10;99.90;;;;;;5019115;28;20088;-84
2021/06/27 04:30:07;;;;;;;18.60;16.17;;;11.20;99.90;;;;;;5018744;28;20049;-85
2021/06/27 04:32:34;;;;;;;17.40;15.45;;;11.30;99.90;;;;;;5018854;28;20448;-84
2021/06/27 04:35:02;;;;;;;15.93;14.23;;;11.40;99.90;;;;;;5018550;28;20132;-84
2021/06/27 04:37:28;;;;;;;17.13;15.32;;;11.60;99.90;;;;;;5036197;28;20092;-85
2021/06/27 04:39:55;;;;;;;17.10;15.32;;;11.70;99.90;;;;;;5019248;28;20060;-85
2021/06/27 04:42:22;;;;;;;18.52;15.10;;;11.70;99.90;;;;;;5037701;28;20045;-85
2021/06/27 04:44:49;;;;;;;17.77;14.98;;;11.90;99.90;;;;;;5039251;28;20077;-84
2021/06/27 04:47:16;;;;;;;15.23;13.63;;;12.10;99.90;;;;;;5019578;28;20050;-84
2021/06/27 04:49:42;;;;;;;17.05;13.07;;;12.30;99.90;;;;;;5018204;28;20064;-84
2021/06/27 04:52:10;;;;;;;14.38;13.00;;;12.50;99.90;;;;;;5018590;28;20055;-84
2021/06/27 04:54:37;;;;;;;15.95;14.35;;;12.70;99.90;;;;;;5018434;28;20128;-83
2021/06/27 04:57:05;;;;;;;12.95;10.75;;;13.30;99.90;;;;;;5035471;28;20042;-83
2021/06/27 04:59:32;;;;;;;11.10;8.80;;;13.80;99.90;;;;;;5018318;28;20050;-85
2021/06/27 05:01:58;;;;;;;9.38;8.57;;;14.00;99.90;;;;;;5035815;28;20136;-86
2021/06/27 05:04:26;;;;;;;10.55;9.57;;;14.00;99.90;;;;;;5018354;28;20144;-86
2021/06/27 05:06:52;;;;;;;9.65;8.82;;;14.00;99.90;;;;;;5018035;28;20056;-85
2021/06/27 05:09:19;;;;;;;8.65;7.95;;;14.20;99.90;;;;;;5035558;28;20042;-86
2021/06/27 05:11:46;;;;;;;7.53;6.93;;;14.90;99.90;;;;;;5018260;28;20050;-85
2021/06/27 05:14:13;;;;;;;9.50;6.93;;;16.20;99.90;;;;;;5035845;28;20045;-84
2021/06/27 05:16:39;;;;;;;8.52;6.82;;;17.50;99.90;;;;;;5017774;28;20053;-85
2021/06/27 05:19:06;;;;;;;7.80;6.22;;;18.60;99.90;;;;;;5035096;28;20053;-84
2021/06/27 05:21:33;;;;;;;6.68;5.88;;;19.90;99.90;;;;;;5017800;28;20045;-84
2021/06/27 05:24:00;;;;;;;7.15;5.53;;;20.70;99.90;;;;;;5017789;28;20045;-84
2021/06/27 05:26:27;;;;;;;6.03;5.53;;;21.30;99.90;;;;;;5035880;28;20036;-84
2021/06/27 05:28:53;;;;;;;6.05;5.35;;;22.00;99.90;;;;;;5018008;28;20055;-84
2021/06/27 05:31:20;;;;;;;6.78;5.35;;;23.00;99.90;;;;;;5017899;28;20045;-84
2021/06/27 05:33:47;;;;;;;5.75;5.20;;;23.50;99.90;;;;;;5038453;28;20072;-84
2021/06/27 05:36:14;;;;;;;14.30;6.70;;;24.20;99.90;;;;;;5018293;28;20537;-84
2021/06/27 05:38:41;;;;;;;17.27;6.30;;;25.10;99.90;;;;;;5035036;28;20045;-83
2021/06/27 05:41:08;;;;;;;14.90;6.10;;;25.40;99.90;;;;;;5034911;28;20056;-83
2021/06/27 05:43:34;;;;;;;5.53;5.10;;;25.30;99.90;;;;;;5017672;28;20045;-83
2021/06/27 05:46:02;;;;;;;5.80;5.40;;;25.30;99.70;;;;;;5018047;28;20042;-83
2021/06/27 05:48:29;;;;;;;5.78;5.28;;;25.70;99.30;;;;;;5034562;28;20092;-82
2021/06/27 05:50:56;;;;;;;6.78;6.05;;;26.40;97.20;;;;;;5035053;28;20050;-82
2021/06/27 05:53:22;;;;;;;5.75;5.20;;;26.50;96.60;;;;;;5016869;28;20528;-81
2021/06/27 05:55:49;;;;;;;5.95;5.40;;;26.70;95.00;;;;;;5034308;28;20060;-82
2021/06/27 05:58:16;;;;;;;5.60;5.25;;;26.10;95.40;;;;;;5016886;28;20508;-82
2021/06/27 06:00:42;;;;;;;5.78;5.38;;;26.50;95.80;;;;;;5034311;28;20055;-82
2021/06/27 06:03:09;;;;;;;5.40;4.90;;;26.90;94.30;;;;;;5018306;28;20103;-83
2021/06/27 06:05:36;;;;;;;5.57;5.18;;;27.80;92.70;;;;;;5018268;28;20052;-82
2021/06/27 06:08:03;;;;;;;6.18;5.32;;;28.80;90.30;;;;;;5034270;28;20059;-82
2021/06/27 06:10:30;;;;;;;5.78;5.28;;;28.90;87.40;;;;;;5034310;28;20055;-82
2021/06/27 06:12:57;;;;;;;8.05;5.35;;;29.10;85.60;;;;;;5016545;28;20132;-81
2021/06/27 06:15:24;;;;;;;7.35;5.50;;;29.10;83.70;;;;;;5016280;28;20520;-81
2021/06/27 06:17:51;;;;;;;5.88;5.38;;;28.90;83.10;;;;;;5016246;28;20508;-82
2021/06/27 06:20:18;;;;;;;12.15;6.00;;;28.20;85.60;;;;;;5016354;28;20051;-81
2021/06/27 06:22:44;;;;;;;12.32;5.63;;;29.10;83.30;;;;;;5033412;28;20045;-82
2021/06/27 06:25:11;;;;;;;6.15;5.25;;;29.30;84.40;;;;;;5016198;28;20077;-82
2021/06/27 06:27:38;;;;;;;15.88;6.03;;;30.40;80.20;;;;;;5016220;28;20133;-82
2021/06/27 06:30:05;;;;;;;13.18;6.05;;;30.70;76.70;;;;;;5038521;28;20077;-82
2021/06/27 06:32:32;;;;;;;14.38;6.40;;;30.10;78.00;;;;;;5044271;28;20045;-82
2021/06/27 06:34:59;;;;;;;7.30;5.47;;;29.40;79.50;;;;;;5034929;28;20444;-82
2021/06/27 06:37:26;;;;;;;8.13;5.82;;;30.60;77.40;;;;;;5034810;28;20051;-83
2021/06/27 06:39:52;;;;;;;17.42;5.95;;;31.10;75.00;;;;;;5052520;28;20060;-83
2021/06/27 06:42:19;;;;;;;18.58;6.93;;;30.70;74.20;;;;;;5035097;28;20052;-83
2021/06/27 06:44:46;;;;;;;27.52;6.85;;;29.60;76.40;;;;;;5052509;28;20493;-83
2021/06/27 06:47:12;;;;;;;14.05;6.88;;;29.80;77.10;;;;;;5052313;28;20080;-83
2021/06/27 06:49:39;;;;;;;20.95;7.82;;;30.90;76.00;;;;;;5033124;28;20053;-83
2021/06/27 06:52:06;;;;;;;13.95;6.68;;;30.50;75.80;;;;;;5023147;28;20398;-83
2021/06/27 06:54:33;;;;;;;9.88;6.15;;;30.00;76.20;;;;;;5015042;28;20053;-82
2021/06/27 06:57:00;;;;;;;12.02;6.45;;;29.60;77.50;;;;;;5014617;28;20060;-81
2021/06/27 06:59:27;;;;;;;8.75;6.60;;;28.70;80.50;;;;;;5014881;28;20085;-83
2021/06/27 07:01:54;;;;;;;9.75;6.00;;;28.30;82.10;;;;;;5014927;28;20056;-85
2021/06/27 07:04:21;;;;;;;9.70;6.40;;;27.80;82.80;;;;;;5014333;28;20129;-84
2021/06/27 07:06:47;;;;;;;10.95;6.38;;;28.30;83.70;;;;;;5014622;28;20490;-83
2021/06/27 07:09:14;;;;;;;12.43;6.57;;;28.70;83.70;;;;;;5031969;28;20464;-82
2021/06/27 07:11:41;;;;;;;14.77;6.82;;;28.20;84.70;;;;;;5014076;28;20051;-83
2021/06/27 07:14:08;;;;;;;9.90;6.07;;;28.00;85.50;;;;;;5031972;28;20223;-83
2021/06/27 07:16:34;;;;;;;8.00;6.65;;;27.90;86.00;;;;;;5032078;28;20053;-83
2021/06/27 07:19:02;;;;;;;9.80;6.47;;;27.60;86.10;;;;;;5013953;28;20061;-83
2021/06/27 07:21:29;;;;;;;7.72;6.32;;;27.60;87.10;;;;;;5013741;28;20080;-82
2021/06/27 07:23:56;;;;;;;7.40;6.15;;;28.40;87.30;;;;;;5014879;28;20041;-81
2021/06/27 07:26:25;;;;;;;9.98;6.38;;;29.50;84.60;;;;;;5015451;28;20077;-83
2021/06/27 07:28:52;;;;;;;8.20;6.00;;;30.30;82.50;;;;;;5027209;28;20401;-83
2021/06/27 07:31:18;;;;;;;8.98;5.60;;;30.60;81.70;;;;;;5033377;28;20052;-82
2021/06/27 07:33:45;;;;;;;6.80;5.97;;;31.20;79.00;;;;;;5032183;28;20091;-82
2021/06/27 07:36:13;;;;;;;5.47;5.07;;;31.30;78.30;;;;;;5033466;28;20045;-83
2021/06/27 07:38:39;;;;;;;6.60;6.05;;;32.00;77.00;;;;;;5033562;28;20057;-82
2021/06/27 07:41:06;;;;;;;6.43;5.82;;;32.20;76.00;;;;;;5051843;28;20055;-83
2021/06/27 07:43:34;;;;;;;6.00;5.50;;;32.90;73.40;;;;;;5034141;28;20049;-83
2021/06/27 07:46:01;;;;;;;6.55;6.07;;;32.50;72.70;;;;;;5034105;28;20127;-82
2021/06/27 07:48:28;;;;;;;5.88;5.40;;;33.20;71.10;;;;;;5051896;28;20052;-82
2021/06/27 07:50:55;;;;;;;5.93;5.43;;;33.70;70.10;;;;;;5034010;28;20083;-84
2021/06/27 07:53:22;;;;;;;7.70;5.57;;;33.80;68.60;;;;;;5051473;28;20056;-84
2021/06/27 07:55:49;;;;;;;5.55;5.05;;;33.90;68.00;;;;;;5033983;28;20049;-82
2021/06/27 07:58:16;;;;;;;6.20;5.60;;;33.70;69.00;;;;;;5034236;28;20052;-82
2021/06/27 08:00:43;;;;;;;5.45;5.05;;;33.20;68.60;;;;;;5051607;28;20064;-84
2021/06/27 08:03:10;;;;;;;5.57;5.18;;;33.20;68.70;;;;;;5033903;28;20049;-83
2021/06/27 08:05:37;;;;;;;5.47;4.72;;;33.80;67.10;;;;;;5033654;28;20049;-83
2021/06/27 08:08:05;;;;;;;4.13;3.83;;;33.70;66.20;;;;;;5051581;28;20531;-83
2021/06/27 08:10:32;;;;;;;4.60;4.30;;;33.50;65.50;;;;;;5034073;28;20041;-82
2021/06/27 08:13:00;;;;;;;4.68;4.28;;;33.70;65.50;;;;;;5033800;28;20438;-83
2021/06/27 08:15:27;;;;;;;4.70;4.30;;;34.60;64.80;;;;;;5033442;28;20056;-85
2021/06/27 08:17:54;;;;;;;4.22;3.83;;;35.00;64.80;;;;;;5034113;28;20045;-83
2021/06/27 08:20:23;;;;;;;3.35;3.17;;;34.00;61.80;;;;;;5051433;28;20083;-83
2021/06/27 08:22:50;;;;;;;3.92;3.63;;;34.60;62.60;;;;;;5034398;28;20052;-85
2021/06/27 08:25:17;;;;;;;3.65;3.45;;;35.80;58.30;;;;;;5033997;28;20124;-86
2021/06/27 08:27:45;;;;;;;4.38;3.63;;;36.20;57.00;;;;;;5033730;28;20409;-82
2021/06/27 08:30:14;;;;;;;3.78;3.47;;;36.60;55.60;;;;;;5051957;28;20098;-83
2021/06/27 08:32:45;;;;;;;3.60;3.30;;;36.80;55.90;;;;;;5033784;28;20409;-83
2021/06/27 08:35:17;;;;;;;3.78;3.20;;;37.20;54.90;;;;;;5051518;28;20041;-83
2021/06/27 08:37:46;;;;;;;3.75;3.55;;;37.80;53.80;;;;;;5051277;28;20045;-83
2021/06/27 08:40:14;;;;;;;3.60;3.40;;;37.40;53.50;;;;;;5034137;28;20059;-88
2021/06/27 08:42:41;;;;;;;3.85;3.55;;;36.70;53.30;;;;;;5034911;28;20045;-85
2021/06/27 08:45:10;;;;;;;3.85;3.58;;;36.80;53.70;;;;;;5045216;28;20076;-84
2021/06/27 08:47:38;;;;;;;3.65;3.35;;;37.60;53.90;;;;;;5058015;28;20049;-86
2021/06/27 08:50:08;;;;;;;3.97;3.67;;;37.00;53.80;;;;;;5037744;28;20049;-86
2021/06/27 08:52:35;;;;;;;4.13;3.45;;;37.30;53.60;;;;;;5037938;28;20053;-85
2021/06/27 08:55:03;;;;;;;3.42;3.03;;;36.70;52.90;;;;;;5036927;28;20407;-83
2021/06/27 08:57:31;;;;;;;3.30;3.10;;;38.00;53.80;;;;;;5054633;28;20059;-83
2021/06/27 08:59:58;;;;;;;4.85;3.60;;;39.10;52.30;;;;;;5036996;28;20053;-86
2021/06/27 09:02:26;;;;;;;3.28;3.08;;;39.20;51.30;;;;;;5036767;28;20515;-82
2021/06/27 09:04:52;;;;;;;3.47;3.17;;;39.70;50.90;;;;;;5054502;28;20048;-82
2021/06/27 09:07:34;;;;;;;5.28;3.50;;;40.60;50.10;;;;;;5036842;28;20044;-83
2021/06/27 09:10:06;;;;;;;2.60;2.40;;;40.80;48.60;;;;;;5037044;28;20128;-88
2021/06/27 09:12:55;;;;;;;3.33;3.13;;;40.60;47.30;;;;;;5037635;28;20055;-83
2021/06/27 09:15:45;;;;;;;3.00;2.83;;;39.70;48.20;;;;;;5036655;28;20056;-82
2021/06/27 09:18:15;;;;;;;3.20;3.10;;;40.00;48.90;;;;;;5036484;28;20107;-82
2021/06/27 09:20:48;;;;;;;2.88;2.67;;;38.90;48.50;;;;;;5036345;28;20049;-86
2021/06/27 09:23:17;;;;;;;3.47;3.28;;;38.80;49.40;;;;;;5037879;28;20539;-84
2021/06/27 09:25:45;;;;;;;2.90;2.70;;;37.60;49.30;;;;;;5061960;28;20084;-84
2021/06/27 09:28:17;;;;;;;2.60;2.50;;;37.60;51.30;;;;;;5037065;28;20053;-83
2021/06/27 09:30:48;;;;;;;3.40;2.47;;;37.90;50.40;;;;;;5036738;28;20059;-83
2021/06/27 09:33:17;;;;;;;3.22;3.03;;;39.50;48.10;;;;;;5036686;28;20498;-82
2021/06/27 09:35:59;;;;;;;2.53;2.40;;;38.50;49.30;;;;;;5054308;28;20446;-82
2021/06/27 09:38:37;;;;;;;3.13;2.92;;;36.80;49.80;;;;;;5036850;28;20091;-82
2021/06/27 09:41:20;;;;;;;4.72;2.92;;;36.60;51.00;;;;;;5035872;28;20424;-82
2021/06/27 09:43:55;;;;;;;3.35;3.05;;;36.00;50.90;;;;;;5054162;28;20141;-87
2021/06/27 09:46:53;;;;;;;3.13;2.92;;;34.20;52.30;;;;;;5036127;28;20493;-82
2021/06/27 09:49:31;;;;;;;3.10;2.90;;;35.40;52.60;;;;;;5041407;28;20053;-83
2021/06/27 09:52:07;;;;;;;3.05;2.72;;;35.30;50.90;;;;;;5036458;28;20059;-83
2021/06/27 09:54:37;;;;;;;3.40;3.20;;;34.10;52.80;;;;;;5036838;28;20131;-87
2021/06/27 09:57:06;;;;;;;3.20;2.90;;;32.80;53.60;;;;;;5036015;28;20053;-82
2021/06/27 09:59:42;;;;;;;3.58;3.38;;;31.40;56.40;;;;;;5053856;28;20057;-82
2021/06/27 10:02:09;;;;;;;3.15;2.95;;;30.80;57.90;;;;;;5035802;28;20500;-81
2021/06/27 10:04:38;;;;;;;2.85;2.75;;;31.00;58.20;;;;;;5053641;28;20057;-81
2021/06/27 10:07:07;;;;;;;3.08;2.88;;;30.80;57.70;;;;;;5053870;28;20056;-81
2021/06/27 10:09:36;;;;;;;4.30;3.28;;;31.20;58.80;;;;;;5053401;28;20088;-84
2021/06/27 10:12:14;;;;;;;3.03;2.92;;;32.30;58.70;;;;;;5035479;28;20053;-82
2021/06/27 10:14:48;;;;;;;3.13;2.85;;;34.50;55.70;;;;;;5035338;28;20075;-82
2021/06/27 10:17:20;;;;;;;3.25;2.95;;;35.00;54.40;;;;;;5035383;28;20128;-82
2021/06/27 10:19:47;;;;;;;2.90;2.70;;;36.50;51.20;;;;;;5052948;28;20076;-82
2021/06/27 10:22:15;;;;;;;2.95;2.85;;;36.80;51.20;;;;;;5035796;28;20084;-82
2021/06/27 10:24:41;;;;;;;3.00;2.70;;;36.90;49.80;;;;;;5035033;28;20049;-83
2021/06/27 10:27:09;;;;;;;3.08;2.88;;;38.10;49.10;;;;;;5035452;28;20457;-82
2021/06/27 10:29:39;;;;;;;2.85;2.65;;;35.90;50.20;;;;;;5034897;28;20413;-82
2021/06/27 10:32:06;;;;;;;2.78;2.67;;;34.70;51.50;;;;;;5034974;28;20507;-82
2021/06/27 10:34:33;;;;;;;3.08;2.88;;;33.30;53.10;;;;;;5052861;28;20501;-81
2021/06/27 10:37:06;;;;;;;2.67;2.55;;;33.60;54.60;;;;;;5035807;28;20095;-86
2021/06/27 10:39:33;;;;;;;2.88;2.78;;;34.40;52.60;;;;;;5053789;28;20052;-82
2021/06/27 10:42:03;;;;;;;3.03;2.72;;;35.50;52.10;;;;;;5036534;28;20490;-83
2021/06/27 10:44:39;;;;;;;3.38;2.45;;;35.70;50.50;;;;;;5035513;28;20055;-82
2021/06/27 10:47:07;;;;;;;2.53;2.42;;;37.20;50.80;;;;;;5035839;28;20409;-81
2021/06/27 10:49:34;;;;;;;2.90;2.70;;;37.70;49.90;;;;;;5053426;28;20390;-82
2021/06/27 10:52:11;;;;;;;2.63;2.42;;;39.20;47.10;;;;;;5035565;28;20106;-82
2021/06/27 10:54:42;;;;;;;2.35;2.25;;;39.60;47.20;;;;;;5052902;28;20071;-82
2021/06/27 10:57:16;;;;;;;2.55;2.45;;;40.80;46.20;;;;;;5035480;28;20045;-82
2021/06/27 10:59:47;;;;;;;3.70;2.47;;;42.00;44.60;;;;;;5035319;28;20049;-82
2021/06/27 11:02:20;;;;;;;2.50;2.40;;;40.80;44.40;;;;;;5035375;28;20106;-81
2021/06/27 11:04:50;;;;;;;2.30;2.20;;;39.60;45.90;;;;;;5052650;28;20049;-81
2021/06/27 11:07:32;;;;;;;2.58;2.40;;;39.70;46.10;;;;;;5035079;28;20045;-81
2021/06/27 11:10:18;;;;;;;2.40;2.30;;;38.30;46.00;;;;;;5052671;28;20490;-81
2021/06/27 11:13:06;;;;;;;3.25;3.00;;;36.30;48.40;;;;;;5035193;28;20072;-83
2021/06/27 11:16:07;;;;;;;4.80;2.90;;;36.90;49.80;;;;;;5035210;28;20091;-82
2021/06/27 11:18:40;;;;;;;2.90;2.80;;;37.00;48.80;;;;;;5035216;28;20053;-82
2021/06/27 11:21:25;;;;;;;2.58;2.47;;;37.00;47.90;;;;;;5052520;28;20044;-82
2021/06/27 11:23:57;;;;;;;3.10;2.80;;;35.70;49.20;;;;;;5036213;28;20045;-84
2021/06/27 11:26:48;;;;;;;2.67;2.58;;;34.50;50.00;;;;;;5036985;28;20053;-85
2021/06/27 11:29:21;;;;;;;2.72;2.53;;;33.40;51.80;;;;;;5045987;28;20048;-83
2021/06/27 11:31:49;;;;;;;2.87;2.77;;;33.10;52.80;;;;;;5052592;28;20076;-83
2021/06/27 11:34:31;;;;;;;2.55;2.45;;;33.50;52.30;;;;;;5034828;28;20485;-82
2021/06/27 11:37:18;;;;;;;6.30;2.90;;;34.30;53.20;;;;;;5035076;28;20055;-87
2021/06/27 11:39:53;;;;;;;2.47;2.28;;;34.00;50.90;;;;;;5052785;28;20560;-82
2021/06/27 11:42:22;;;;;;;2.00;2.00;;;34.00;51.50;;;;;;5029936;28;20056;-81
2021/06/27 11:45:07;;;;;;;2.47;2.38;;;35.30;50.70;;;;;;5035175;28;20076;-86
2021/06/27 11:47:39;;;;;;;3.47;2.72;;;35.40;49.00;;;;;;5035256;28;20075;-84
2021/06/27 11:50:30;;;;;;;3.40;2.67;;;35.30;49.80;;;;;;5035210;28;20053;-87
2021/06/27 11:53:01;;;;;;;2.38;2.28;;;34.50;50.00;;;;;;5035399;28;20049;-85
2021/06/27 11:56:03;;;;;;;2.85;2.65;;;33.20;51.70;;;;;;5035243;28;20053;-86
2021/06/27 11:58:31;;;;;;;2.95;2.70;;;32.20;53.50;;;;;;5034681;28;20132;-84
2021/06/27 12:01:04;;;;;;;2.90;2.70;;;31.60;53.50;;;;;;5034402;28;20053;-81
2021/06/27 12:03:31;;;;;;;2.85;2.53;;;30.90;54.80;;;;;;5034328;28;20139;-81
2021/06/27 12:06:02;;;;;;;3.50;2.70;;;30.60;55.40;;;;;;5034295;28;20136;-81
2021/06/27 12:08:31;;;;;;;2.95;2.85;;;30.30;56.10;;;;;;5034857;28;20049;-82
2021/06/27 12:11:02;;;;;;;2.65;2.45;;;30.10;56.80;;;;;;5034337;28;20115;-81
2021/06/27 12:13:29;;;;;;;4.15;2.60;;;30.00;57.60;;;;;;5034232;28;20130;-84
2021/06/27 12:15:58;;;;;;;2.90;2.70;;;30.10;57.30;;;;;;5034616;28;20081;-82
2021/06/27 12:18:28;;;;;;;3.03;2.80;;;29.70;56.90;;;;;;5051922;28;20559;-83
2021/06/27 12:21:05;;;;;;;2.97;2.78;;;29.40;57.60;;;;;;5053475;28;20416;-82
2021/06/27 12:23:42;;;;;;;6.18;2.72;;;29.40;57.40;;;;;;5038971;28;20049;-82
2021/06/27 12:26:14;;;;;;;2.63;2.53;;;29.50;56.40;;;;;;5056058;28;20049;-81
2021/06/27 12:29:07;;;;;;;2.88;2.78;;;29.40;57.70;;;;;;5038204;28;20497;-81
2021/06/27 12:31:37;;;;;;;2.78;2.67;;;29.60;57.40;;;;;;5035666;28;20420;-87
2021/06/27 12:34:08;;;;;;;2.85;2.50;;;29.60;57.60;;;;;;5050236;28;20412;-86
2021/06/27 12:36:37;;;;;;;2.83;2.60;;;29.10;57.30;;;;;;5027387;28;20464;-85
2021/06/27 12:39:07;;;;;;;3.13;2.90;;;29.00;58.70;;;;;;5047254;28;20103;-83
2021/06/27 12:41:38;;;;;;;3.05;2.85;;;29.10;59.10;;;;;;5022606;28;20053;-85
2021/06/27 12:44:09;;;;;;;2.88;2.65;;;29.10;58.60;;;;;;5040378;28;20077;-82
2021/06/27 12:46:47;;;;;;;2.70;2.60;;;29.40;58.60;;;;;;5018911;28;20445;-82
2021/06/27 12:49:17;;;;;;;3.08;2.88;;;29.50;58.60;;;;;;5018310;28;20496;-87